Fletcher, Missouri
Current Conditions -  °F | °C
As of 2:35 PM on Tuesday 21 Oct 2014 (Local Time) from KFYG Reporting Station
Clear Clear  
Wind Chill: 68°   Ceiling: Unl
Heat Index: 68°   Visibility: 10mi
Dew Point: 45°   Wind: 7mph
Humidity: 43%   Direction: 340°NNW
Pressure: 30.1"   Gusts: NA
Location:  38.17°N, 90.73°W
Report Text: KFYG 211935Z AUTO 34006KT 10SM CLR 20/07 A3010 RMK AO2
Loading
Personal Weather Stations






























Interactive Weather Map
Tropical Storm Tracking
New forecast layout! Learn more

10-Day Weather Forecast

Advertisements
Track Severe Weather on mobile